createdAt,value
2023-04-06T00:00:31.307Z,0
2023-04-06T00:01:31.302Z,0
2023-04-06T00:02:31.359Z,0
2023-04-06T00:03:31.400Z,0
2023-04-06T00:04:31.298Z,0
2023-04-06T00:05:31.306Z,0
2023-04-06T00:06:31.301Z,0
2023-04-06T00:07:31.369Z,0
2023-04-06T00:08:31.324Z,0
2023-04-06T00:09:31.308Z,0
2023-04-06T00:10:31.300Z,0
2023-04-06T00:11:31.297Z,0
2023-04-06T00:12:31.304Z,0
2023-04-06T00:13:31.312Z,0
2023-04-06T00:14:31.299Z,0
2023-04-06T00:15:31.302Z,0
2023-04-06T00:16:31.361Z,0
2023-04-06T00:17:31.362Z,0
2023-04-06T00:18:31.461Z,0
2023-04-06T00:19:31.315Z,0
2023-04-06T00:20:31.311Z,0
2023-04-06T00:21:31.336Z,0
2023-04-06T00:22:31.314Z,0
2023-04-06T00:23:31.316Z,0
2023-04-06T00:24:31.307Z,0
2023-04-06T00:25:31.307Z,0
2023-04-06T00:26:31.304Z,0
2023-04-06T00:27:31.294Z,0
2023-04-06T00:28:31.314Z,0
2023-04-06T00:29:31.308Z,0
2023-04-06T00:30:31.287Z,0
2023-04-06T00:31:31.347Z,0
2023-04-06T00:32:31.350Z,0
2023-04-06T00:33:31.319Z,0
2023-04-06T00:34:31.300Z,0
2023-04-06T00:35:31.301Z,0
2023-04-06T00:36:31.316Z,0
2023-04-06T00:37:31.307Z,0
2023-04-06T00:38:31.310Z,0
2023-04-06T00:39:31.291Z,0
2023-04-06T00:40:31.321Z,0
2023-04-06T00:41:31.296Z,0
2023-04-06T00:42:31.295Z,0
2023-04-06T00:43:31.308Z,0
2023-04-06T00:44:31.311Z,0
2023-04-06T00:45:31.305Z,0
2023-04-06T00:46:31.378Z,0
2023-04-06T00:47:31.306Z,0
2023-04-06T00:48:31.324Z,0
2023-04-06T00:49:31.307Z,0
2023-04-06T00:50:31.314Z,0
2023-04-06T00:51:31.301Z,0
2023-04-06T00:52:31.338Z,0
2023-04-06T00:53:31.327Z,0
2023-04-06T00:54:31.306Z,0
2023-04-06T00:55:31.312Z,0
2023-04-06T00:56:31.302Z,0
2023-04-06T00:57:31.300Z,0
2023-04-06T00:58:31.317Z,0
2023-04-06T00:59:31.359Z,0
2023-04-06T01:00:31.293Z,0
2023-04-06T01:01:31.331Z,0
2023-04-06T01:02:31.321Z,0
2023-04-06T01:03:31.312Z,0
2023-04-06T01:04:31.301Z,0
2023-04-06T01:05:31.353Z,0
2023-04-06T01:06:31.306Z,0
2023-04-06T01:07:31.316Z,0
2023-04-06T01:08:31.318Z,0
2023-04-06T01:09:31.303Z,0
2023-04-06T01:10:31.309Z,0
2023-04-06T01:11:31.304Z,0
2023-04-06T01:12:31.301Z,0
2023-04-06T01:13:31.311Z,0
2023-04-06T01:14:31.317Z,0
2023-04-06T01:15:31.401Z,0
2023-04-06T01:16:31.366Z,0
2023-04-06T01:17:31.336Z,0
2023-04-06T01:18:31.322Z,0
2023-04-06T01:19:31.324Z,0
2023-04-06T01:20:31.302Z,0
2023-04-06T01:21:31.302Z,0
2023-04-06T01:22:31.316Z,0
2023-04-06T01:23:31.327Z,0
2023-04-06T01:24:31.332Z,0
2023-04-06T01:25:31.308Z,0
2023-04-06T01:26:31.316Z,0
2023-04-06T01:27:31.301Z,0
2023-04-06T01:28:31.342Z,0
2023-04-06T01:29:31.304Z,0
2023-04-06T01:30:31.312Z,0
2023-04-06T01:31:31.322Z,0
2023-04-06T01:32:31.341Z,0
2023-04-06T01:33:31.327Z,0
2023-04-06T01:34:31.308Z,0
2023-04-06T01:35:31.355Z,0
2023-04-06T01:36:31.301Z,0
2023-04-06T01:37:31.328Z,0
2023-04-06T01:38:31.315Z,0
2023-04-06T01:39:31.309Z,0
2023-04-06T01:40:31.315Z,0
2023-04-06T01:41:31.298Z,0
2023-04-06T01:42:31.306Z,0
2023-04-06T01:43:31.321Z,0
2023-04-06T01:44:31.344Z,0
2023-04-06T01:45:31.312Z,0
2023-04-06T01:46:31.341Z,0
2023-04-06T01:47:31.360Z,0
2023-04-06T01:48:31.329Z,0
2023-04-06T01:49:31.311Z,0
2023-04-06T01:50:31.308Z,0
2023-04-06T01:51:31.295Z,0
2023-04-06T01:52:31.314Z,0
2023-04-06T01:53:31.321Z,0
2023-04-06T01:54:31.306Z,0
2023-04-06T01:55:31.309Z,0
2023-04-06T01:56:31.303Z,0
2023-04-06T01:57:31.298Z,0
2023-04-06T01:58:31.318Z,0
2023-04-06T01:59:31.331Z,0
2023-04-06T02:00:31.327Z,0
2023-04-06T02:01:31.307Z,0
2023-04-06T02:02:31.455Z,0
2023-04-06T02:03:31.317Z,0
2023-04-06T02:04:31.298Z,0
2023-04-06T02:05:31.315Z,0
2023-04-06T02:06:31.295Z,0
2023-04-06T02:07:31.320Z,0
2023-04-06T02:08:31.314Z,0
2023-04-06T02:09:31.295Z,0
2023-04-06T02:10:31.306Z,0
2023-04-06T02:11:31.303Z,0
2023-04-06T02:12:31.301Z,0
2023-04-06T02:13:31.334Z,0
2023-04-06T02:14:31.308Z,0
2023-04-06T02:15:31.316Z,0
2023-04-06T02:16:31.465Z,0
2023-04-06T02:17:31.318Z,0
2023-04-06T02:18:31.333Z,0
2023-04-06T02:19:31.308Z,0
2023-04-06T02:20:31.313Z,0
2023-04-06T02:21:31.302Z,0
2023-04-06T02:22:31.323Z,0
2023-04-06T02:23:31.334Z,0
2023-04-06T02:24:31.304Z,0
2023-04-06T02:25:31.326Z,0
2023-04-06T02:26:31.304Z,0
2023-04-06T02:27:31.311Z,0
2023-04-06T02:28:31.322Z,0
2023-04-06T02:29:31.333Z,0
2023-04-06T02:30:31.291Z,0
2023-04-06T02:31:31.355Z,0
2023-04-06T02:32:31.328Z,0
2023-04-06T02:33:31.317Z,0
2023-04-06T02:34:31.313Z,0
2023-04-06T02:35:31.352Z,0
2023-04-06T02:36:31.319Z,0
2023-04-06T02:37:31.328Z,0
2023-04-06T02:38:31.323Z,0
2023-04-06T02:39:31.305Z,0
2023-04-06T02:40:31.304Z,0
2023-04-06T02:41:31.306Z,0
2023-04-06T02:42:31.304Z,0
2023-04-06T02:43:31.320Z,0
2023-04-06T02:44:31.310Z,0
2023-04-06T02:45:31.304Z,0
2023-04-06T02:46:31.522Z,0
2023-04-06T02:47:31.338Z,0
2023-04-06T02:48:31.313Z,0
2023-04-06T02:49:31.309Z,0
2023-04-06T02:50:31.313Z,0
2023-04-06T02:51:31.304Z,0
2023-04-06T02:52:31.328Z,0
2023-04-06T02:53:31.339Z,0
2023-04-06T02:54:31.301Z,0
2023-04-06T02:55:31.324Z,0
2023-04-06T02:56:31.308Z,0
2023-04-06T02:57:31.346Z,0
2023-04-06T02:58:31.345Z,0
2023-04-06T02:59:31.410Z,0
2023-04-06T03:00:31.309Z,0
2023-04-06T03:01:31.328Z,0
2023-04-06T03:02:31.399Z,0
2023-04-06T03:03:31.480Z,0
2023-04-06T03:04:31.298Z,0
2023-04-06T03:05:31.346Z,0
2023-04-06T03:06:31.321Z,0
2023-04-06T03:07:31.317Z,0
2023-04-06T03:08:31.311Z,0
2023-04-06T03:09:31.312Z,0
2023-04-06T03:10:31.307Z,0
2023-04-06T03:11:31.320Z,0
2023-04-06T03:12:31.320Z,0
2023-04-06T03:13:31.316Z,0
2023-04-06T03:14:31.303Z,0
2023-04-06T03:15:31.376Z,0
2023-04-06T03:16:31.304Z,0
2023-04-06T03:17:31.311Z,0
2023-04-06T03:18:31.324Z,0
2023-04-06T03:19:31.305Z,0
2023-04-06T03:20:31.309Z,0
2023-04-06T03:21:31.303Z,0
2023-04-06T03:22:31.333Z,0
2023-04-06T03:23:31.315Z,0
2023-04-06T03:24:31.299Z,0
2023-04-06T03:25:31.307Z,0
2023-04-06T03:26:31.305Z,0
2023-04-06T03:27:31.299Z,0
2023-04-06T03:28:31.318Z,0
2023-04-06T03:29:31.307Z,0
2023-04-06T03:30:31.296Z,0
2023-04-06T03:31:31.382Z,0
2023-04-06T03:32:31.355Z,0
2023-04-06T03:33:31.306Z,0
2023-04-06T03:34:31.296Z,0
2023-04-06T03:35:31.349Z,0
2023-04-06T03:36:31.323Z,0
2023-04-06T03:37:31.317Z,0
2023-04-06T03:38:31.312Z,0
2023-04-06T03:39:31.301Z,0
2023-04-06T03:40:31.298Z,0
2023-04-06T03:41:31.298Z,0
2023-04-06T03:42:31.296Z,0
2023-04-06T03:43:31.322Z,0
2023-04-06T03:44:31.304Z,0
2023-04-06T03:45:31.297Z,0
2023-04-06T03:46:31.395Z,0
2023-04-06T03:47:31.316Z,0
2023-04-06T03:48:31.306Z,0
2023-04-06T03:49:31.292Z,0
2023-04-06T03:50:31.291Z,0
2023-04-06T03:51:31.306Z,0
2023-04-06T03:52:31.316Z,0
2023-04-06T03:53:31.309Z,0
2023-04-06T03:54:31.308Z,0
2023-04-06T03:55:31.299Z,0
2023-04-06T03:56:31.297Z,0
2023-04-06T03:57:31.302Z,0
2023-04-06T03:58:31.319Z,0
2023-04-06T03:59:31.336Z,0
2023-04-06T04:00:31.298Z,0
2023-04-06T04:01:31.321Z,0
2023-04-06T04:02:31.339Z,0
2023-04-06T04:03:31.403Z,0
2023-04-06T04:04:31.319Z,0
2023-04-06T04:05:31.380Z,0
2023-04-06T04:06:31.313Z,0
2023-04-06T04:07:31.306Z,0
2023-04-06T04:08:31.307Z,0
2023-04-06T04:09:31.299Z,0
2023-04-06T04:10:31.295Z,0
2023-04-06T04:11:31.296Z,0
2023-04-06T04:12:31.298Z,0
2023-04-06T04:13:31.323Z,0
2023-04-06T04:14:31.299Z,0
2023-04-06T04:15:31.288Z,0
2023-04-06T04:16:31.326Z,0
2023-04-06T04:17:31.316Z,0.01
2023-04-06T04:18:31.322Z,0.01
2023-04-06T04:19:31.295Z,0.01
2023-04-06T04:20:31.288Z,0.01
2023-04-06T04:21:31.315Z,0.01
2023-04-06T04:22:31.307Z,0.02
2023-04-06T04:23:31.313Z,0.02
2023-04-06T04:24:31.292Z,0.02
2023-04-06T04:25:31.296Z,0.02
2023-04-06T04:26:31.303Z,0.03
2023-04-06T04:27:31.298Z,0.03
2023-04-06T04:28:31.324Z,0.03
2023-04-06T04:29:31.298Z,0.04
2023-04-06T04:30:31.306Z,0.04
2023-04-06T04:31:31.304Z,0.05
2023-04-06T04:32:31.305Z,0.05
2023-04-06T04:33:31.327Z,0.06
2023-04-06T04:34:31.304Z,0.06
2023-04-06T04:35:31.332Z,0.07
2023-04-06T04:36:31.312Z,0.08
2023-04-06T04:37:31.323Z,0.08
2023-04-06T04:38:31.318Z,0.09
2023-04-06T04:39:31.294Z,0.09
2023-04-06T04:40:31.290Z,0.1
2023-04-06T04:41:31.302Z,0.1
2023-04-06T04:42:31.307Z,0.11
2023-04-06T04:43:32.865Z,0.12
2023-04-06T04:44:31.304Z,0.13
2023-04-06T04:45:31.340Z,0.14
2023-04-06T04:46:31.296Z,0.14
2023-04-06T04:47:31.323Z,0.15
2023-04-06T04:48:31.319Z,0.16
2023-04-06T04:49:31.314Z,0.17
2023-04-06T04:50:31.320Z,0.18
2023-04-06T04:51:31.312Z,0.18
2023-04-06T04:52:31.329Z,0.19
2023-04-06T04:53:31.320Z,0.21
2023-04-06T04:54:31.309Z,0.22
2023-04-06T04:55:31.307Z,0.23
2023-04-06T04:56:31.306Z,0.24
2023-04-06T04:57:31.313Z,0.25
2023-04-06T04:58:31.326Z,0.25
2023-04-06T04:59:31.344Z,0.26
2023-04-06T05:00:31.299Z,0.27
2023-04-06T05:01:38.012Z,0.27
2023-04-06T05:02:31.378Z,0.28
2023-04-06T05:03:31.456Z,0.29
2023-04-06T05:04:31.315Z,0.29
2023-04-06T05:05:31.314Z,0.3
2023-04-06T05:06:31.308Z,0.31
2023-04-06T05:07:31.346Z,0.32
2023-04-06T05:08:31.330Z,0.33
2023-04-06T05:09:31.319Z,0.33
2023-04-06T05:10:31.321Z,0.34
2023-04-06T05:11:31.313Z,0.35
2023-04-06T05:12:31.319Z,0.36
2023-04-06T05:13:31.327Z,0.37
2023-04-06T05:14:31.317Z,0.37
2023-04-06T05:15:31.336Z,0.38
2023-04-06T05:16:31.318Z,0.39
2023-04-06T05:17:31.329Z,0.4
2023-04-06T05:18:31.336Z,0.41
2023-04-06T05:19:31.309Z,0.42
2023-04-06T05:20:31.318Z,0.42
2023-04-06T05:21:31.307Z,0.43
2023-04-06T05:22:31.327Z,0.44
2023-04-06T05:23:31.328Z,0.45
2023-04-06T05:24:31.321Z,0.46
2023-04-06T05:25:31.350Z,0.46
2023-04-06T05:26:31.354Z,0.47
2023-04-06T05:27:31.315Z,0.48
2023-04-06T05:28:31.324Z,0.49
2023-04-06T05:29:31.322Z,0.5
2023-04-06T05:30:31.317Z,0.51
2023-04-06T05:31:31.327Z,0.51
2023-04-06T05:32:31.363Z,0.52
2023-04-06T05:33:31.331Z,0.53
2023-04-06T05:34:31.316Z,0.54
2023-04-06T05:35:31.375Z,0.55
2023-04-06T05:36:31.324Z,0.56
2023-04-06T05:37:31.335Z,0.56
2023-04-06T05:38:31.317Z,0.57
2023-04-06T05:39:31.310Z,0.58
2023-04-06T05:40:31.312Z,0.59
2023-04-06T05:41:31.304Z,0.6
2023-04-06T05:42:31.307Z,0.6
2023-04-06T05:43:31.332Z,0.61
2023-04-06T05:44:31.306Z,0.62
2023-04-06T05:45:31.315Z,0.63
2023-04-06T05:46:31.342Z,0.64
2023-04-06T05:47:31.373Z,0.65
2023-04-06T05:48:31.319Z,0.65
2023-04-06T05:49:31.298Z,0.66
2023-04-06T05:50:31.302Z,0.67
2023-04-06T05:51:31.290Z,0.68
2023-04-06T05:52:31.311Z,0.68
2023-04-06T05:53:31.319Z,0.69
2023-04-06T05:54:31.300Z,0.7
2023-04-06T05:55:31.300Z,0.7
2023-04-06T05:56:31.308Z,0.7
2023-04-06T05:57:31.295Z,0.71
2023-04-06T05:58:31.314Z,0.72
2023-04-06T05:59:31.327Z,0.73
2023-04-06T06:00:31.294Z,0.73
2023-04-06T06:01:31.316Z,0.74
2023-04-06T06:02:31.466Z,0.75
2023-04-06T06:03:31.313Z,0.76
2023-04-06T06:04:31.323Z,0.76
2023-04-06T06:05:31.315Z,0.77
2023-04-06T06:06:31.310Z,0.78
2023-04-06T06:07:31.321Z,0.79
2023-04-06T06:08:31.323Z,0.79
2023-04-06T06:09:31.302Z,0.8
2023-04-06T06:10:31.290Z,0.82
2023-04-06T06:11:31.304Z,0.82
2023-04-06T06:12:31.313Z,0.83
2023-04-06T06:13:31.328Z,0.83
2023-04-06T06:14:31.314Z,0.85
2023-04-06T06:15:31.307Z,0.87
2023-04-06T06:16:31.387Z,0.88
2023-04-06T06:17:31.318Z,1.02
2023-04-06T06:18:31.325Z,1.79
2023-04-06T06:19:31.310Z,2.51
2023-04-06T06:20:31.298Z,2.51
2023-04-06T06:21:31.298Z,2.52
2023-04-06T06:22:31.323Z,2.74
2023-04-06T06:23:31.324Z,2.78
2023-04-06T06:24:31.713Z,2.69
2023-04-06T06:25:31.317Z,3.11
2023-04-06T06:26:31.291Z,2.96
2023-04-06T06:27:31.519Z,2.71
2023-04-06T06:28:31.321Z,3.05
2023-04-06T06:29:31.303Z,3.6
2023-04-06T06:30:31.296Z,3.56
2023-04-06T06:31:31.350Z,3.26
2023-04-06T06:32:31.344Z,3.25
2023-04-06T06:33:31.317Z,3.35
2023-04-06T06:34:31.308Z,3.67
2023-04-06T06:35:31.335Z,3.49
2023-04-06T06:36:31.301Z,2.92
2023-04-06T06:37:31.419Z,3.27
2023-04-06T06:38:31.328Z,3.47
2023-04-06T06:39:31.309Z,3.52
2023-04-06T06:40:31.313Z,3.62
2023-04-06T06:41:31.308Z,3.82
2023-04-06T06:42:31.321Z,3.58
2023-04-06T06:43:31.350Z,3.36
2023-04-06T06:44:31.437Z,3.77
2023-04-06T06:45:31.349Z,4.53
2023-04-06T06:46:31.319Z,4.71
2023-04-06T06:47:31.334Z,4.17
2023-04-06T06:48:31.319Z,3.54
2023-04-06T06:49:31.323Z,3.91
2023-04-06T06:50:31.296Z,4.11
2023-04-06T06:51:31.309Z,3.88
2023-04-06T06:52:31.319Z,4.34
2023-04-06T06:53:31.336Z,4.48
2023-04-06T06:54:31.310Z,4.32
2023-04-06T06:55:31.314Z,4.03
2023-04-06T06:56:31.308Z,4.13
2023-04-06T06:57:31.307Z,4.2
2023-04-06T06:58:31.350Z,3.97
2023-04-06T06:59:31.335Z,5.03
2023-04-06T07:00:31.310Z,4.78
2023-04-06T07:01:31.322Z,4.16
2023-04-06T07:02:31.334Z,4.8
2023-04-06T07:03:31.327Z,4.44
2023-04-06T07:04:31.404Z,4.28
2023-04-06T07:05:31.327Z,5.04
2023-04-06T07:06:31.341Z,5.39
2023-04-06T07:07:31.322Z,5.25
2023-04-06T07:08:31.331Z,5.21
2023-04-06T07:09:31.332Z,5.38
2023-04-06T07:10:31.310Z,5.5
2023-04-06T07:11:31.316Z,4.56
2023-04-06T07:12:31.306Z,4.47
2023-04-06T07:13:31.348Z,5.48
2023-04-06T07:14:31.297Z,5.49
2023-04-06T07:15:31.334Z,4.86
2023-04-06T07:16:31.353Z,4.92
2023-04-06T07:17:31.322Z,5.26
2023-04-06T07:18:31.743Z,5.67
2023-04-06T07:19:31.360Z,5.71
2023-04-06T07:20:31.295Z,5.71
2023-04-06T07:21:31.314Z,6.14
2023-04-06T07:22:31.322Z,7.46
2023-04-06T07:23:31.321Z,6.26
2023-04-06T07:24:31.320Z,4.98
2023-04-06T07:25:31.308Z,5.78
2023-04-06T07:26:31.320Z,6.59
2023-04-06T07:27:31.321Z,6.49
2023-04-06T07:28:31.315Z,6.78
2023-04-06T07:29:31.321Z,6.59
2023-04-06T07:30:32.028Z,5.72
2023-04-06T07:31:31.327Z,5.52
2023-04-06T07:32:31.322Z,6.52
2023-04-06T07:33:31.328Z,7.26
2023-04-06T07:34:31.305Z,6.62
2023-04-06T07:35:31.379Z,6.09
2023-04-06T07:36:31.309Z,6.3
2023-04-06T07:37:31.340Z,7.19
2023-04-06T07:38:31.307Z,7.21
2023-04-06T07:39:31.309Z,6.29
2023-04-06T07:40:31.300Z,6.17
2023-04-06T07:41:31.301Z,6.16
2023-04-06T07:42:31.304Z,6.62
2023-04-06T07:43:31.345Z,7.14
2023-04-06T07:44:31.303Z,7.13
2023-04-06T07:45:31.296Z,7.73
2023-04-06T07:46:31.380Z,6.81
2023-04-06T07:47:31.322Z,4.8
2023-04-06T07:48:31.318Z,5.27
2023-04-06T07:49:31.295Z,7.89
2023-04-06T07:50:31.318Z,8.9
2023-04-06T07:51:31.312Z,7.09
2023-04-06T07:52:31.325Z,5.52
2023-04-06T07:53:31.327Z,5.72
2023-04-06T07:54:31.325Z,6.39
2023-04-06T07:55:31.309Z,7.33
2023-04-06T07:56:31.303Z,7.94
2023-04-06T07:57:31.304Z,7.53
2023-04-06T07:58:31.325Z,6.81
2023-04-06T07:59:31.326Z,5.96
2023-04-06T08:00:31.315Z,5.3
2023-04-06T08:01:31.305Z,5.83
2023-04-06T08:02:31.410Z,7.65
2023-04-06T08:03:31.534Z,8.49
2023-04-06T08:04:31.361Z,7.54
2023-04-06T08:05:31.358Z,7.3
2023-04-06T08:06:31.308Z,8.42
2023-04-06T08:07:31.326Z,8.9
2023-04-06T08:08:31.322Z,9.23
2023-04-06T08:09:31.308Z,9.67
2023-04-06T08:10:31.307Z,8.91
2023-04-06T08:11:31.308Z,8.11
2023-04-06T08:12:31.336Z,8.21
2023-04-06T08:13:31.368Z,7.86
2023-04-06T08:14:31.306Z,7.7
2023-04-06T08:15:31.379Z,8.62
2023-04-06T08:16:31.321Z,9.09
2023-04-06T08:17:31.493Z,8.06
2023-04-06T08:18:31.327Z,7.38
2023-04-06T08:19:31.306Z,7.99
2023-04-06T08:20:31.304Z,7.99
2023-04-06T08:21:31.312Z,8.34
2023-04-06T08:22:31.309Z,7.87
2023-04-06T08:23:31.315Z,8.69
2023-04-06T08:24:31.315Z,9.44
2023-04-06T08:25:31.297Z,9.07
2023-04-06T08:26:31.309Z,8.96
2023-04-06T08:27:31.303Z,9.24
2023-04-06T08:28:31.311Z,8.55
2023-04-06T08:29:31.309Z,7.25
2023-04-06T08:30:31.306Z,6.02
2023-04-06T08:31:31.350Z,5.79
2023-04-06T08:32:31.313Z,6.66
2023-04-06T08:33:31.311Z,8.01
2023-04-06T08:34:31.311Z,9.07
2023-04-06T08:35:31.310Z,9.21
2023-04-06T08:36:31.300Z,9.27
2023-04-06T08:37:31.342Z,9.46
2023-04-06T08:38:31.304Z,9.65
2023-04-06T08:39:31.306Z,9.39
2023-04-06T08:40:31.290Z,8.92
2023-04-06T08:41:31.305Z,8.91
2023-04-06T08:42:31.305Z,9.77
2023-04-06T08:43:31.333Z,10.69
2023-04-06T08:44:31.305Z,10.5
2023-04-06T08:45:31.297Z,9.17
2023-04-06T08:46:31.499Z,8.47
2023-04-06T08:47:31.325Z,9.47
2023-04-06T08:48:31.307Z,10.29
2023-04-06T08:49:31.297Z,9.9
2023-04-06T08:50:31.319Z,8.96
2023-04-06T08:51:31.363Z,8.75
2023-04-06T08:52:31.316Z,8.84
2023-04-06T08:53:31.311Z,9.3
2023-04-06T08:54:31.305Z,10.64
2023-04-06T08:55:31.304Z,12
2023-04-06T08:56:31.315Z,11.73
2023-04-06T08:57:31.308Z,9.52
2023-04-06T08:58:37.676Z,7.06
2023-04-06T08:59:31.352Z,6.63
2023-04-06T09:00:31.303Z,7.48
2023-04-06T09:01:31.357Z,8.44
2023-04-06T09:02:31.366Z,9.15
2023-04-06T09:03:31.428Z,9.91
2023-04-06T09:04:31.510Z,10.55
2023-04-06T09:05:31.314Z,10.64
2023-04-06T09:06:31.307Z,9.94
2023-04-06T09:07:31.425Z,9.07
2023-04-06T09:08:31.334Z,9.01
2023-04-06T09:09:31.304Z,9.8
2023-04-06T09:10:31.319Z,10.77
2023-04-06T09:11:31.309Z,10.94
2023-04-06T09:12:31.312Z,10.28
2023-04-06T09:13:31.299Z,10.36
2023-04-06T09:14:31.312Z,10.22
2023-04-06T09:15:31.297Z,9.96
2023-04-06T09:16:31.356Z,10.44
2023-04-06T09:17:31.344Z,11.54
2023-04-06T09:18:31.300Z,11.56
2023-04-06T09:19:31.318Z,11.06
2023-04-06T09:20:31.308Z,11.06
2023-04-06T09:21:31.302Z,10.5
2023-04-06T09:22:31.318Z,10.05
2023-04-06T09:23:31.332Z,9.62
2023-04-06T09:24:31.307Z,9.23
2023-04-06T09:25:31.308Z,9.63
2023-04-06T09:26:31.309Z,11.17
2023-04-06T09:27:31.310Z,12.26
2023-04-06T09:28:31.305Z,12.14
2023-04-06T09:29:31.305Z,11.3
2023-04-06T09:30:31.313Z,9.89
2023-04-06T09:31:31.392Z,9.5
2023-04-06T09:32:31.378Z,10.7
2023-04-06T09:33:31.313Z,11.03
2023-04-06T09:34:31.318Z,10.29
2023-04-06T09:35:31.391Z,8.61
2023-04-06T09:36:31.317Z,7.18
2023-04-06T09:37:31.321Z,6.99
2023-04-06T09:38:31.304Z,8.61
2023-04-06T09:39:31.309Z,10.56
2023-04-06T09:40:31.305Z,12
2023-04-06T09:41:31.343Z,13.17
2023-04-06T09:42:31.322Z,13.24
2023-04-06T09:43:31.319Z,12.3
2023-04-06T09:44:31.299Z,10.61
2023-04-06T09:45:31.320Z,8.99
2023-04-06T09:47:31.363Z,6.93
2023-04-06T09:48:31.360Z,7.42
2023-04-06T09:49:31.334Z,9.7
2023-04-06T09:50:31.304Z,11.74
2023-04-06T09:51:31.712Z,13.17
2023-04-06T09:52:31.324Z,13.92
2023-04-06T09:53:31.315Z,13.07
2023-04-06T09:54:31.315Z,12.13
2023-04-06T09:55:31.323Z,11.68
2023-04-06T09:56:31.313Z,11.94
2023-04-06T09:57:31.368Z,12.65
2023-04-06T09:58:31.336Z,13.46
2023-04-06T09:59:31.323Z,13.52
2023-04-06T10:00:31.306Z,13.18
2023-04-06T10:01:31.315Z,12.19
2023-04-06T10:02:31.596Z,10.92
2023-04-06T10:03:31.427Z,10.64
2023-04-06T10:04:31.309Z,10.92
2023-04-06T10:05:31.301Z,10.53
2023-04-06T10:06:31.291Z,10.33
2023-04-06T10:07:31.323Z,11.54
2023-04-06T10:08:33.009Z,13.08
2023-04-06T10:09:31.298Z,14.27
2023-04-06T10:10:31.355Z,14.4
2023-04-06T10:11:31.305Z,13.08
2023-04-06T10:12:31.311Z,11.34
2023-04-06T10:13:31.303Z,10.66
2023-04-06T10:14:31.298Z,11.7
2023-04-06T10:15:31.303Z,13.01
2023-04-06T10:16:31.322Z,13.35
2023-04-06T10:17:31.321Z,12.63
2023-04-06T10:18:31.301Z,11.29
2023-04-06T10:19:31.305Z,9.81
2023-04-06T10:20:31.300Z,9.77
2023-04-06T10:21:31.307Z,11.35
2023-04-06T10:22:31.330Z,12.67
2023-04-06T10:23:31.300Z,14.16
2023-04-06T10:24:31.302Z,14.37
2023-04-06T10:25:31.307Z,13.57
2023-04-06T10:26:31.304Z,12.92
2023-04-06T10:27:31.301Z,12.79
2023-04-06T10:28:31.288Z,13.14
2023-04-06T10:29:31.314Z,13.69
2023-04-06T10:30:31.293Z,14.19
2023-04-06T10:31:31.343Z,13.63
2023-04-06T10:32:31.383Z,12.79
2023-04-06T10:33:31.308Z,12.55
2023-04-06T10:34:31.310Z,13.09
2023-04-06T10:35:31.344Z,13.49
2023-04-06T10:36:31.302Z,14.16
2023-04-06T10:37:31.327Z,8.62
2023-04-06T10:38:31.306Z,14.1
2023-04-06T10:39:31.310Z,13.9
2023-04-06T10:40:31.296Z,13.56
2023-04-06T10:41:31.306Z,13.65
2023-04-06T10:42:31.337Z,13.71
2023-04-06T10:43:31.324Z,13.78
2023-04-06T10:44:31.312Z,13.36
2023-04-06T10:45:31.378Z,13.02
2023-04-06T10:46:31.316Z,5.81
2023-04-06T10:47:31.333Z,5.94
2023-04-06T10:48:31.312Z,6.15
2023-04-06T10:49:31.312Z,9.22
2023-04-06T10:50:31.311Z,8.85
2023-04-06T10:51:31.315Z,3.78
2023-04-06T10:52:31.330Z,3.78
2023-04-06T10:53:31.318Z,2.92
2023-04-06T10:54:31.305Z,2.81
2023-04-06T10:55:31.300Z,2.84
2023-04-06T10:56:31.298Z,2.79
2023-04-06T10:57:31.325Z,2.74
2023-04-06T10:58:31.310Z,2.67
2023-04-06T10:59:31.441Z,2.65
2023-04-06T11:00:43.360Z,2.6
2023-04-06T11:01:31.389Z,2.56
2023-04-06T11:02:31.351Z,2.53
2023-04-06T11:03:31.305Z,2.5
2023-04-06T11:04:31.363Z,2.48
2023-04-06T11:05:31.310Z,2.52
2023-04-06T11:06:31.324Z,2.65
2023-04-06T11:07:31.339Z,2.82
2023-04-06T11:08:31.300Z,3.01
2023-04-06T11:09:31.304Z,3.67
2023-04-06T11:10:31.313Z,3.7
2023-04-06T11:11:31.302Z,12.63
2023-04-06T11:12:31.324Z,14.36
2023-04-06T11:13:31.296Z,11.13
2023-04-06T11:14:31.301Z,15.13
2023-04-06T11:15:31.305Z,15.5
2023-04-06T11:16:31.321Z,6.86
2023-04-06T11:17:31.328Z,6.42
2023-04-06T11:18:31.304Z,6.36
2023-04-06T11:19:31.299Z,13.38
2023-04-06T11:20:31.306Z,12.65
2023-04-06T11:21:31.301Z,13.09
2023-04-06T11:22:31.330Z,12.87
2023-04-06T11:23:31.304Z,13.28
2023-04-06T11:24:31.314Z,7.32
2023-04-06T11:25:31.302Z,5.77
2023-04-06T11:26:31.305Z,7.08
2023-04-06T11:27:31.324Z,6.68
2023-04-06T11:28:31.299Z,9.11
2023-04-06T11:29:31.579Z,6.4
2023-04-06T11:30:31.309Z,5.09
2023-04-06T11:31:31.385Z,4.8
2023-04-06T11:32:31.349Z,6.03
2023-04-06T11:33:31.316Z,4.79
2023-04-06T11:34:31.333Z,4.38
2023-04-06T11:35:31.301Z,4.22
2023-04-06T11:36:31.304Z,4.42
2023-04-06T11:37:31.322Z,3.81
2023-04-06T11:38:31.301Z,3.71
2023-04-06T11:39:31.342Z,3.72
2023-04-06T11:40:31.311Z,3.84
2023-04-06T11:41:31.316Z,3.79
2023-04-06T11:42:31.339Z,3.77
2023-04-06T11:43:31.309Z,3.91
2023-04-06T11:44:31.304Z,4.53
2023-04-06T11:45:31.311Z,5.53
2023-04-06T11:46:31.338Z,4.76
2023-04-06T11:47:31.340Z,4.96
2023-04-06T11:48:31.331Z,4.03
2023-04-06T11:49:31.311Z,3.74
2023-04-06T11:50:31.302Z,3.71
2023-04-06T11:51:31.308Z,3.68
2023-04-06T11:52:31.320Z,3.32
2023-04-06T11:53:31.332Z,3.32
2023-04-06T11:54:31.318Z,3.22
2023-04-06T11:55:32.397Z,3.11
2023-04-06T11:56:31.312Z,3.02
2023-04-06T11:57:31.317Z,2.94
2023-04-06T11:58:31.308Z,3.01
2023-04-06T11:59:31.393Z,3.04
2023-04-06T12:00:31.297Z,3.17
2023-04-06T12:01:34.212Z,3.43
2023-04-06T12:02:31.390Z,3.62
2023-04-06T12:03:31.382Z,3.98
2023-04-06T12:04:31.361Z,12.11
2023-04-06T12:05:31.304Z,10.43
2023-04-06T12:06:31.308Z,14.35
2023-04-06T12:07:31.334Z,14.5
2023-04-06T12:08:31.305Z,12.69
2023-04-06T12:09:31.300Z,11.93
2023-04-06T12:10:31.298Z,11.71
2023-04-06T12:11:31.305Z,10.87
2023-04-06T12:12:31.312Z,10
2023-04-06T12:13:31.302Z,10.35
2023-04-06T12:14:31.296Z,11.29
2023-04-06T12:15:31.314Z,11.73
2023-04-06T12:16:31.322Z,12.63
2023-04-06T12:17:31.320Z,13.58
2023-04-06T12:18:31.297Z,13.51
2023-04-06T12:19:32.452Z,12.59
2023-04-06T12:20:31.296Z,11.3
2023-04-06T12:21:31.301Z,10.8
2023-04-06T12:22:31.329Z,11.88
2023-04-06T12:23:31.306Z,13.24
2023-04-06T12:24:31.323Z,13.37
2023-04-06T12:25:32.410Z,12.3
2023-04-06T12:26:31.313Z,11.13
2023-04-06T12:27:31.303Z,10.24
2023-04-06T12:28:31.289Z,3.75
2023-04-06T12:29:31.298Z,4.77
2023-04-06T12:30:31.290Z,6.77
2023-04-06T12:31:31.344Z,6.37
2023-04-06T12:32:31.354Z,10.67
2023-04-06T12:33:31.291Z,10.75
2023-04-06T12:34:31.295Z,8.8
2023-04-06T12:35:31.343Z,8.27
2023-04-06T12:36:31.307Z,8.22
2023-04-06T12:37:31.314Z,7.99
2023-04-06T12:38:31.305Z,7.95
2023-04-06T12:39:31.297Z,8.56
2023-04-06T12:40:31.290Z,9.37
2023-04-06T12:41:31.326Z,10.27
2023-04-06T12:42:31.303Z,10.16
2023-04-06T12:43:31.308Z,9.81
2023-04-06T12:44:31.302Z,10.01
2023-04-06T12:45:31.307Z,10.56
2023-04-06T12:46:31.318Z,10.58
2023-04-06T12:47:31.379Z,9.87
2023-04-06T12:48:31.293Z,9.84
2023-04-06T12:49:32.114Z,10.92
2023-04-06T12:50:31.303Z,11.7
2023-04-06T12:51:31.298Z,11.48
2023-04-06T12:52:31.306Z,10.94
2023-04-06T12:53:31.294Z,10.94
2023-04-06T12:54:31.296Z,10.44
2023-04-06T12:55:31.291Z,9.01
2023-04-06T12:56:31.293Z,7.16
2023-04-06T12:57:31.302Z,8.04
2023-04-06T12:58:31.295Z,9.68
2023-04-06T12:59:31.354Z,11.11
2023-04-06T13:00:31.380Z,10.84
2023-04-06T13:01:31.398Z,5.43
2023-04-06T13:02:31.397Z,6.68
2023-04-06T13:03:31.342Z,6.68
2023-04-06T13:04:31.313Z,4.16
2023-04-06T13:05:32.536Z,3.11
2023-04-06T13:06:31.307Z,2.94
2023-04-06T13:07:31.365Z,2.92
2023-04-06T13:08:31.294Z,2.84
2023-04-06T13:09:31.292Z,2.87
2023-04-06T13:10:31.289Z,2.85
2023-04-06T13:11:31.306Z,2.74
2023-04-06T13:12:31.311Z,2.6
2023-04-06T13:13:31.299Z,2.6
2023-04-06T13:14:31.293Z,2.47
2023-04-06T13:15:31.298Z,2.38
2023-04-06T13:16:31.358Z,2.33
2023-04-06T13:17:31.360Z,2.26
2023-04-06T13:18:31.295Z,2.17
2023-04-06T13:19:31.291Z,2.15
2023-04-06T13:20:31.303Z,2.17
2023-04-06T13:21:31.312Z,5.57
2023-04-06T13:22:31.330Z,6.69
2023-04-06T13:23:31.305Z,4.81
2023-04-06T13:24:31.302Z,6.61
2023-04-06T13:25:31.302Z,8.67
2023-04-06T13:26:31.304Z,9.19
2023-04-06T13:27:31.310Z,8.82
2023-04-06T13:28:31.302Z,8.41
2023-04-06T13:29:31.294Z,8.67
2023-04-06T13:30:31.300Z,9.01
2023-04-06T13:31:31.334Z,8.4
2023-04-06T13:32:31.389Z,7
2023-04-06T13:33:31.299Z,7.23
2023-04-06T13:34:31.302Z,9.02
2023-04-06T13:35:36.692Z,9.4
2023-04-06T13:36:35.643Z,8.38
2023-04-06T13:37:35.575Z,8.17
2023-04-06T13:38:35.561Z,8.75
2023-04-06T13:39:35.566Z,8.88
2023-04-06T13:40:35.579Z,8.73
2023-04-06T13:41:35.543Z,8.52
2023-04-06T13:42:35.558Z,8.71